Time;durP1;ratioP1;P1;durP2;ratioP2;P2;SDS_P1;SDS_P2;PMS_P1;PMS_P2;Temp;Humidity;BMP_temperature;BMP_pressure;BME280_temperature;BME280_humidity;BME280_pressure;Samples;Min_cycle;Max_cycle;Signal;HPM_P1;HPM_P2
2023/02/07 05:26:07;;;;;;;114.00;79.28;;;;;;;-5.74;100.00;103018.53;5049820;28;20404;-86
2023/02/07 05:28:36;;;;;;;114.60;77.78;;;;;;;-5.92;100.00;103030.25;5037981;28;20045;-83
2023/02/07 05:31:18;;;;;;;105.45;77.03;;;;;;;-6.16;100.00;103024.06;5036714;28;20042;-83
2023/02/07 05:34:03;;;;;;;111.75;75.43;;;;;;;-6.27;100.00;103038.09;5040404;28;20052;-84
2023/02/07 05:36:31;;;;;;;122.15;82.63;;;;;;;-6.15;100.00;103033.50;5037395;28;20049;-84
2023/02/07 05:39:20;;;;;;;127.68;85.55;;;;;;;-6.02;100.00;103040.91;5036564;28;20053;-84
2023/02/07 05:42:02;;;;;;;120.40;81.13;;;;;;;-6.31;100.00;103046.00;5032006;28;20406;-82
2023/02/07 05:45:03;;;;;;;;;;;;;;;-6.13;100.00;103049.84;5037079;28;20053;-82
2023/02/07 05:47:45;;;;;;;95.35;69.93;;;;;;;-6.40;100.00;103048.81;5026902;28;19928;-82
2023/02/07 05:50:17;;;;;;;95.38;69.68;;;;;;;-6.13;100.00;103053.28;5027377;28;20529;-82
2023/02/07 05:52:44;;;;;;;96.10;68.63;;;;;;;-5.97;100.00;103052.84;5028657;28;20049;-82
2023/02/07 05:55:29;;;;;;;92.88;69.25;;;;;;;-6.02;100.00;103048.66;5011688;28;20050;-83
2023/02/07 05:58:12;;;;;;;104.68;76.10;;;;;;;-6.53;100.00;103059.47;5018618;28;20448;-82
2023/02/07 06:00:47;;;;;;;92.72;70.82;;;;;;;-6.28;100.00;103067.44;5029178;28;20061;-83
2023/02/07 06:07:29;;;;;;;94.85;69.07;;;;;;;-5.99;100.00;103068.41;5061723;27;20386;-80
2023/02/07 06:09:55;;;;;;;116.72;80.05;;;;;;;-6.01;100.00;103063.28;5050928;28;20491;-80
2023/02/07 06:12:22;;;;;;;106.22;79.25;;;;;;;-6.36;100.00;103064.19;5053906;28;20057;-82
2023/02/07 06:14:49;;;;;;;118.88;81.80;;;;;;;-6.04;100.00;103073.72;5057047;28;20052;-80
2023/02/07 06:17:16;;;;;;;116.18;79.68;;;;;;;-5.81;100.00;103064.44;5064630;28;20094;-80
2023/02/07 06:19:42;;;;;;;110.13;78.72;;;;;;;-5.77;100.00;103072.09;5055949;28;20049;-80
2023/02/07 06:24:32;;;;;;;104.03;75.78;;;;;;;-5.66;100.00;103063.16;5076340;27;20929;-84
2023/02/07 06:30:03;;;;;;;156.90;94.78;;;;;;;-4.80;100.00;103077.00;4708822;27;10002123;-80
2023/02/07 06:32:30;;;;;;;206.80;109.22;;;;;;;-4.52;100.00;103082.13;5012241;28;20061;-81
2023/02/07 06:37:36;;;;;;;195.38;108.57;;;;;;;-4.25;100.00;103074.34;5081425;27;20382;-80
2023/02/07 06:40:04;;;;;;;161.73;102.68;;;;;;;-3.70;100.00;103072.38;5079806;28;20411;-80
2023/02/07 06:42:30;;;;;;;138.45;94.30;;;;;;;-3.52;100.00;103063.06;5083029;28;20056;-80
2023/02/07 06:44:57;;;;;;;154.77;104.25;;;;;;;-4.17;100.00;103047.22;5079737;28;20487;-80
2023/02/07 06:47:24;;;;;;;186.70;122.18;;;;;;;-3.40;100.00;103066.97;5086869;28;20052;-80
2023/02/07 06:49:51;;;;;;;169.55;111.40;;;;;;;-2.91;100.00;103060.72;5083982;28;20491;-81
2023/02/07 06:52:18;;;;;;;134.93;98.95;;;;;;;-2.68;100.00;103058.97;5081074;28;20059;-80
2023/02/07 06:54:46;;;;;;;125.72;99.20;;;;;;;-2.03;100.00;103044.91;5080079;28;20137;-80
2023/02/07 06:57:13;;;;;;;120.40;90.70;;;;;;;-2.43;100.00;103054.41;5084112;28;20036;-80
2023/02/07 06:59:40;;;;;;;117.40;88.32;;;;;;;-2.22;100.00;103057.88;5078667;28;20040;-80
2023/02/07 07:02:07;;;;;;;126.22;91.72;;;;;;;-1.32;100.00;103045.19;5081861;28;20067;-80
2023/02/07 07:04:33;;;;;;;119.65;92.25;;;;;;;-1.35;100.00;103047.09;5086248;28;20055;-80
2023/02/07 07:07:00;;;;;;;140.77;96.65;;;;;;;-1.35;100.00;103047.94;5084339;28;20398;-80
2023/02/07 07:09:27;;;;;;;126.65;92.72;;;;;;;-1.32;100.00;103045.19;5084037;28;20056;-80
2023/02/07 07:11:55;;;;;;;182.45;107.63;;;;;;;-0.35;100.00;103043.09;5078020;28;20045;-80
2023/02/07 07:14:22;;;;;;;153.55;103.95;;;;;;;-0.79;100.00;103049.56;5076237;28;20063;-80
2023/02/07 07:16:49;;;;;;;110.80;88.38;;;;;;;-0.51;100.00;103040.41;5086276;28;20052;-80
2023/02/07 07:19:15;;;;;;;139.30;97.63;;;;;;;-0.24;100.00;103054.69;5083773;28;20449;-80
2023/02/07 07:21:42;;;;;;;168.98;106.05;;;;;;;-0.71;100.00;103033.56;5077185;28;20052;-80
2023/02/07 07:24:09;;;;;;;119.35;91.28;;;;;;;0.65;100.00;103041.28;5073530;28;20048;-81
2023/02/07 07:26:36;;;;;;;99.55;83.10;;;;;;;0.39;100.00;103050.53;5087685;28;20052;-80
2023/02/07 07:29:07;;;;;;;118.97;89.75;;;;;;;0.91;100.00;103051.16;5074714;28;20044;-80
2023/02/07 07:31:33;;;;;;;102.10;80.15;;;;;;;1.32;100.00;103057.56;5082389;28;20040;-80
2023/02/07 07:36:41;;;;;;;125.88;85.28;;;;;;;0.89;100.00;103046.94;5077649;27;20391;-80
2023/02/07 07:39:08;;;;;;;142.23;92.53;;;;;;;1.33;100.00;103052.25;5070499;28;20048;-81
2023/02/07 07:41:35;;;;;;;178.65;102.10;;;;;;;1.06;100.00;103046.81;5063791;28;20106;-80
2023/02/07 07:44:01;;;;;;;129.52;89.47;;;;;;;2.20;100.00;103040.13;5056337;28;20044;-80
2023/02/07 07:46:29;;;;;;;141.25;90.00;;;;;;;2.11;100.00;103040.69;5044576;28;20049;-81
2023/02/07 07:48:56;;;;;;;109.15;86.78;;;;;;;2.70;100.00;103036.97;5050541;28;20048;-81
2023/02/07 07:51:23;;;;;;;104.43;81.45;;;;;;;2.55;100.00;103040.56;5072471;28;20056;-81
2023/02/07 07:53:51;;;;;;;102.35;77.20;;;;;;;2.79;100.00;103040.78;5067759;28;20111;-81
2023/02/07 07:56:18;;;;;;;85.05;71.15;;;;;;;3.63;100.00;103037.00;5072590;28;20044;-81
2023/02/07 07:58:44;;;;;;;78.47;69.55;;;;;;;4.24;100.00;103035.41;5073080;28;20053;-81
2023/02/07 08:01:11;;;;;;;82.35;73.93;;;;;;;4.67;100.00;103029.72;5067435;28;20486;-81
2023/02/07 08:03:38;;;;;;;79.00;72.05;;;;;;;3.62;100.00;103032.69;4356627;28;10000833;-82
2023/02/07 08:06:05;;;;;;;62.60;57.97;;;;;;;3.74;100.00;103031.84;5059655;28;20191;-81
2023/02/07 08:08:32;;;;;;;63.00;58.15;;;;;;;3.56;100.00;103033.09;5059688;28;20084;-81
2023/02/07 08:11:03;;;;;;;61.97;57.63;;;;;;;2.59;100.00;103034.16;5054963;28;20056;-82
2023/02/07 08:13:30;;;;;;;60.05;55.95;;;;;;;4.01;99.25;103037.00;5061342;28;20055;-81
2023/02/07 08:15:56;;;;;;;60.17;56.08;;;;;;;3.88;97.58;103037.03;5069871;28;20151;-81
2023/02/07 08:18:23;;;;;;;60.78;56.55;;;;;;;3.75;91.38;103040.59;5061205;28;20095;-81
2023/02/07 08:20:50;;;;;;;63.35;58.72;;;;;;;4.34;96.32;103032.97;5057405;28;20083;-81
2023/02/07 08:23:17;;;;;;;62.65;58.45;;;;;;;4.28;86.63;103031.63;5060629;28;20052;-81
2023/02/07 08:25:45;;;;;;;59.67;55.75;;;;;;;4.56;84.67;103037.53;5065612;28;20052;-81
2023/02/07 08:28:13;;;;;;;63.05;58.83;;;;;;;4.86;76.22;103042.41;5071570;28;20048;-81
2023/02/07 08:30:40;;;;;;;61.35;57.45;;;;;;;3.47;72.68;103042.44;5072160;28;20063;-82
2023/02/07 08:33:07;;;;;;;60.45;56.58;;;;;;;5.09;79.53;103042.53;5053649;28;20040;-81
2023/02/07 08:35:35;;;;;;;67.95;63.15;;;;;;;3.50;71.30;103042.25;5060196;28;20069;-81
2023/02/07 08:38:01;;;;;;;65.07;60.47;;;;;;;4.04;76.00;103035.97;5071877;28;20103;-81
2023/02/07 08:40:28;;;;;;;63.63;59.50;;;;;;;4.07;72.12;103033.97;5067645;28;20049;-82
2023/02/07 08:42:55;;;;;;;60.33;56.47;;;;;;;4.09;65.95;103026.81;5056643;28;20108;-82
2023/02/07 08:45:24;;;;;;;58.53;54.92;;;;;;;4.94;64.87;103045.31;5054968;28;20040;-82
2023/02/07 08:47:50;;;;;;;59.13;55.38;;;;;;;4.10;56.58;103038.16;5035236;28;20532;-81
2023/02/07 08:50:17;;;;;;;58.53;54.72;;;;;;;4.75;59.41;103035.28;5046649;28;20041;-81
2023/02/07 08:52:45;;;;;;;58.60;54.78;;;;;;;4.61;61.71;103035.44;5057506;28;20081;-81
2023/02/07 08:55:11;;;;;;;59.75;55.85;;;;;;;5.10;60.42;103037.13;5039950;28;20045;-81
2023/02/07 08:57:38;;;;;;;57.25;53.65;;;;;;;4.45;58.45;103040.09;5039948;28;20428;-81
2023/02/07 09:00:07;;;;;;;60.53;56.72;;;;;;;4.64;59.09;103037.00;5037229;28;20502;-81
2023/02/07 09:02:35;;;;;;;60.95;57.03;;;;;;;5.57;62.04;103039.78;5038759;28;20488;-81
2023/02/07 09:05:02;;;;;;;61.20;57.15;;;;;;;5.85;56.56;103034.09;5053045;28;20079;-82
2023/02/07 09:07:29;;;;;;;68.75;63.63;;;;;;;6.57;58.25;103031.09;5059567;28;20048;-82
2023/02/07 09:09:56;;;;;;;63.28;59.15;;;;;;;6.19;55.47;103031.50;5044043;28;20045;-83
2023/02/07 09:12:22;;;;;;;63.55;59.38;;;;;;;4.64;86.87;103039.66;5049471;28;20054;-81
2023/02/07 09:14:49;;;;;;;61.17;57.22;;;;;;;6.04;67.93;103036.16;5048556;28;20042;-81
2023/02/07 09:17:16;;;;;;;61.60;57.55;;;;;;;6.66;56.63;103029.53;5055296;28;20053;-82
2023/02/07 09:19:44;;;;;;;61.95;58.13;;;;;;;7.03;58.31;103032.63;5061468;28;20083;-82
2023/02/07 09:22:11;;;;;;;61.05;57.20;;;;;;;6.35;51.23;103033.75;5059038;28;20061;-82
2023/02/07 09:24:37;;;;;;;60.65;56.72;;;;;;;5.60;63.27;103031.63;5035586;28;20103;-81
2023/02/07 09:27:04;;;;;;;63.25;59.10;;;;;;;7.37;56.55;103021.91;5049726;28;20057;-82
2023/02/07 09:29:31;;;;;;;63.97;59.95;;;;;;;7.15;51.56;103027.31;5039809;28;20045;-82
2023/02/07 09:31:58;;;;;;;64.25;59.95;;;;;;;6.16;48.85;103018.53;5038316;28;20439;-82
2023/02/07 09:34:24;;;;;;;63.00;59.20;;;;;;;6.24;51.41;103017.94;5036229;28;20061;-82
2023/02/07 09:36:53;;;;;;;65.45;61.30;;;;;;;3.85;49.45;103018.84;5043032;28;20056;-82
2023/02/07 09:39:19;;;;;;;64.50;60.28;;;;;;;5.84;60.30;103006.06;5047344;28;20049;-82
2023/02/07 09:41:58;;;;;;;61.58;57.75;;;;;;;7.50;51.84;103001.41;5045035;28;20049;-81
2023/02/07 09:44:35;;;;;;;61.47;57.63;;;;;;;7.97;50.47;102999.13;5039253;28;20053;-82
2023/02/07 09:47:05;;;;;;;62.05;58.08;;;;;;;5.49;48.93;102996.41;5041128;28;20057;-81
2023/02/07 09:49:37;;;;;;;66.43;61.95;;;;;;;8.07;52.83;102999.16;5039363;28;20081;-82
2023/02/07 09:52:09;;;;;;;63.47;59.28;;;;;;;8.98;48.66;102991.97;5041238;28;20041;-82
2023/02/07 09:54:38;;;;;;;;;;;;;;;6.69;49.56;102997.59;5038883;28;20045;-82
2023/02/07 09:57:10;;;;;;;60.17;56.33;;;;;;;5.71;59.06;102978.94;5045076;28;20310;-82
2023/02/07 09:59:45;;;;;;;63.05;59.05;;;;;;;6.19;48.29;102987.47;5044330;28;20049;-82
2023/02/07 10:02:21;;;;;;;63.13;59.05;;;;;;;7.91;49.21;102982.97;5025057;28;20050;-82
2023/02/07 10:04:50;;;;;;;63.53;59.30;;;;;;;4.61;69.75;102977.53;5049079;28;20060;-81
2023/02/07 10:07:18;;;;;;;61.83;57.85;;;;;;;6.97;53.57;102969.72;5037585;28;20073;-82
2023/02/07 10:09:46;;;;;;;61.60;57.70;;;;;;;5.99;54.68;102974.16;5053703;28;20087;-81
2023/02/07 10:12:28;;;;;;;61.95;58.00;;;;;;;7.75;48.63;102962.28;5059228;28;20056;-83
2023/02/07 10:15:12;;;;;;;66.00;61.80;;;;;;;7.50;49.25;102964.41;5054568;28;20061;-82
2023/02/07 10:18:02;;;;;;;65.88;61.58;;;;;;;7.77;46.90;102952.38;5035044;28;20053;-82
2023/02/07 10:20:38;;;;;;;62.95;58.88;;;;;;;6.25;44.98;102951.00;5057326;28;20060;-82
2023/02/07 10:23:22;;;;;;;61.47;57.50;;;;;;;7.31;53.73;102954.53;5053113;28;20053;-82
2023/02/07 10:26:01;;;;;;;62.38;58.38;;;;;;;8.30;46.85;102949.50;5053627;28;20068;-82
2023/02/07 10:28:46;;;;;;;62.15;57.95;;;;;;;7.54;49.24;102947.28;5053979;28;20037;-82
2023/02/07 10:31:17;;;;;;;59.95;56.15;;;;;;;8.58;48.63;102947.88;5044684;28;20117;-82
2023/02/07 10:33:50;;;;;;;59.13;55.42;;;;;;;8.44;45.93;102949.16;5050417;28;20053;-82
2023/02/07 10:36:18;;;;;;;59.00;55.15;;;;;;;5.13;45.79;102960.50;5052055;28;20112;-81
2023/02/07 10:38:53;;;;;;;60.17;56.38;;;;;;;5.04;49.80;102955.91;5056355;28;20151;-81
2023/02/07 10:41:33;;;;;;;60.65;56.45;;;;;;;4.46;48.84;102954.94;5052439;28;20052;-81
2023/02/07 10:44:00;;;;;;;58.10;54.33;;;;;;;4.11;57.85;102958.31;5046135;28;20049;-81
2023/02/07 10:46:28;;;;;;;59.20;55.25;;;;;;;4.48;60.93;102951.25;5026543;28;20049;-81
2023/02/07 10:48:55;;;;;;;60.55;56.38;;;;;;;4.02;67.96;102946.63;5043071;28;20075;-81
2023/02/07 10:51:29;;;;;;;61.97;57.60;;;;;;;7.21;57.56;102942.22;5044085;28;20076;-82
2023/02/07 10:54:07;;;;;;;66.78;62.13;;;;;;;7.27;57.15;102931.13;5036954;28;20049;-82
2023/02/07 10:56:37;;;;;;;81.45;75.15;;;;;;;5.86;59.91;102939.97;5033104;28;20049;-81
2023/02/07 10:59:04;;;;;;;62.60;58.47;;;;;;;2.87;62.43;102946.59;5036025;28;20468;-81
2023/02/07 11:01:33;;;;;;;62.70;58.20;;;;;;;4.33;82.64;102939.22;5022974;28;20042;-82
2023/02/07 11:04:00;;;;;;;60.70;56.45;;;;;;;5.32;76.80;102919.56;5039494;28;20484;-82
2023/02/07 11:06:29;;;;;;;59.92;55.83;;;;;;;3.76;70.15;102937.13;5041352;28;20067;-81
2023/02/07 11:09:19;;;;;;;60.03;55.92;;;;;;;4.59;62.59;102934.66;5040806;28;20499;-81
2023/02/07 11:11:49;;;;;;;61.10;56.95;;;;;;;4.37;61.85;102919.63;5039331;28;20122;-82
2023/02/07 11:14:19;;;;;;;62.58;58.47;;;;;;;6.00;65.92;102916.03;5050657;28;20055;-81
2023/02/07 11:16:47;;;;;;;61.55;57.42;;;;;;;5.11;57.61;102912.34;5058768;28;20060;-81
2023/02/07 11:19:19;;;;;;;64.95;60.63;;;;;;;8.79;54.23;102910.66;5057005;28;20049;-82
2023/02/07 11:21:48;;;;;;;64.35;59.90;;;;;;;8.16;50.55;102902.22;5040083;28;20112;-82
2023/02/07 11:24:20;;;;;;;64.93;60.10;;;;;;;8.07;50.19;102903.88;5049764;28;20053;-82
2023/02/07 11:26:56;;;;;;;64.63;59.65;;;;;;;7.11;49.93;102890.16;5047208;28;20115;-81
2023/02/07 11:29:25;;;;;;;63.92;59.65;;;;;;;2.13;64.76;102900.69;5031319;28;20053;-81
2023/02/07 11:31:58;;;;;;;65.25;60.75;;;;;;;3.15;64.44;102887.88;5040093;28;20792;-81
2023/02/07 11:34:35;;;;;;;61.00;56.95;;;;;;;2.53;87.05;102892.88;5042574;28;20127;-81
2023/02/07 11:37:17;;;;;;;69.32;64.40;;;;;;;4.06;67.90;102886.81;5057051;28;20095;-81
2023/02/07 11:39:46;;;;;;;68.97;62.35;;;;;;;1.69;84.62;102882.50;5035033;28;20115;-80
2023/02/07 11:42:17;;;;;;;61.80;57.58;;;;;;;2.30;86.06;102889.16;5044858;28;20513;-81
2023/02/07 11:44:46;;;;;;;66.20;61.65;;;;;;;4.18;87.78;102885.09;5046979;28;20399;-81
2023/02/07 11:47:17;;;;;;;66.45;61.80;;;;;;;3.39;74.77;102879.25;5056319;28;20045;-81
2023/02/07 11:49:49;;;;;;;61.25;57.00;;;;;;;5.09;63.50;102869.50;5057140;28;20506;-81
2023/02/07 11:52:17;;;;;;;59.95;56.08;;;;;;;3.00;64.17;102880.19;5058398;28;20060;-81
2023/02/07 11:54:51;;;;;;;58.50;54.67;;;;;;;3.83;64.79;102883.16;5057840;28;20045;-81
2023/02/07 11:57:19;;;;;;;61.03;56.83;;;;;;;2.31;66.35;102875.09;5055710;28;20052;-81
2023/02/07 11:59:50;;;;;;;62.15;58.08;;;;;;;2.52;80.29;102878.09;5041945;28;20473;-81
2023/02/07 12:02:21;;;;;;;65.32;61.03;;;;;;;2.40;87.77;102871.84;5024648;28;20526;-80
2023/02/07 12:04:48;;;;;;;65.60;61.22;;;;;;;2.78;82.23;102865.84;5040937;28;20076;-81
2023/02/07 12:07:20;;;;;;;63.20;59.13;;;;;;;2.57;85.36;102862.88;5043599;28;20041;-81
2023/02/07 12:09:53;;;;;;;62.42;58.33;;;;;;;2.48;94.88;102858.22;5050822;28;20415;-81
2023/02/07 12:12:23;;;;;;;66.50;62.10;;;;;;;3.32;94.15;102868.31;5047628;28;20052;-81
2023/02/07 12:14:54;;;;;;;61.55;57.42;;;;;;;2.57;100.00;102869.91;5048936;28;20048;-81
2023/02/07 12:17:27;;;;;;;64.85;60.45;;;;;;;2.93;95.99;102872.69;5056167;28;20498;-82
2023/02/07 12:19:57;;;;;;;61.42;57.30;;;;;;;2.97;91.02;102865.47;5045308;28;20083;-81
2023/02/07 12:22:31;;;;;;;61.17;56.97;;;;;;;1.78;100.00;102868.84;5054438;28;20045;-81
2023/02/07 12:25:04;;;;;;;61.90;57.75;;;;;;;2.28;96.30;102868.25;5048402;28;20044;-81
2023/02/07 12:27:37;;;;;;;61.78;57.60;;;;;;;2.67;100.00;102877.09;5044575;28;20072;-81
2023/02/07 12:30:13;;;;;;;62.55;58.47;;;;;;;1.18;94.66;102859.41;5048559;28;20054;-80
2023/02/07 12:32:49;;;;;;;60.83;56.78;;;;;;;1.70;100.00;102858.84;5042389;28;20517;-80
2023/02/07 21:52:44;;;;;;;82.57;69.60;;;;;;;-2.27;100.00;103032.94;5063209;27;20390;-80
2023/02/07 21:55:11;;;;;;;84.35;72.35;;;;;;;-2.40;100.00;103048.25;5070190;28;20044;-80
2023/02/07 21:57:38;;;;;;;86.30;71.53;;;;;;;-2.33;100.00;103047.94;5076406;28;20111;-80
2023/02/07 22:00:07;;;;;;;92.10;70.32;;;;;;;-2.20;100.00;103052.63;5078431;28;20048;-80
2023/02/07 22:02:35;;;;;;;90.70;73.70;;;;;;;-2.30;100.00;103052.13;5080878;28;20078;-80
2023/02/07 22:05:01;;;;;;;87.07;72.38;;;;;;;-2.36;100.00;103052.41;5077037;28;20485;-80
2023/02/07 22:07:28;;;;;;;101.95;76.05;;;;;;;-2.29;100.00;103048.66;5070117;28;20493;-81
2023/02/07 22:09:56;;;;;;;89.40;75.22;;;;;;;-2.26;100.00;103065.91;5075177;28;20107;-81
2023/02/07 22:12:23;;;;;;;87.43;73.53;;;;;;;-2.33;100.00;103065.28;5065702;28;20051;-80
2023/02/07 22:14:49;;;;;;;87.70;76.82;;;;;;;-2.21;100.00;103075.22;5072990;28;20044;-80
2023/02/07 22:17:17;;;;;;;93.60;79.97;;;;;;;-2.28;100.00;103067.72;5072572;28;20505;-80
2023/02/07 22:19:44;;;;;;;85.82;74.47;;;;;;;-2.09;100.00;103072.06;5060610;28;20598;-81
2023/02/07 22:22:11;;;;;;;85.25;73.85;;;;;;;-2.10;100.00;103080.78;5064590;28;20110;-80
2023/02/07 22:24:38;;;;;;;81.95;70.22;;;;;;;-2.17;100.00;103073.31;5066024;28;20488;-80
2023/02/07 22:27:06;;;;;;;81.72;72.68;;;;;;;-2.16;100.00;103086.25;5060192;28;20045;-81
2023/02/07 22:29:33;;;;;;;77.93;67.07;;;;;;;-2.22;100.00;103088.28;5072185;28;20049;-81
2023/02/07 22:31:59;;;;;;;83.15;71.72;;;;;;;-2.17;100.00;103091.53;5070660;28;20057;-81
2023/02/07 22:34:26;;;;;;;87.95;75.82;;;;;;;-2.22;100.00;103089.13;5072301;28;21243;-81
2023/02/07 22:36:53;;;;;;;86.88;71.15;;;;;;;-2.36;100.00;103089.72;5074144;28;20130;-81
2023/02/07 22:39:19;;;;;;;82.40;68.32;;;;;;;-2.19;100.00;103082.94;5073140;28;20475;-81
2023/02/07 22:41:46;;;;;;;78.47;65.60;;;;;;;-2.29;100.00;103090.28;5066343;28;20053;-81
2023/02/07 22:44:14;;;;;;;86.53;69.28;;;;;;;-2.23;100.00;103103.06;5072164;28;20041;-81
2023/02/07 22:46:42;;;;;;;86.47;70.15;;;;;;;-2.19;100.00;103083.78;5059972;28;20126;-80
2023/02/07 22:49:08;;;;;;;84.07;70.47;;;;;;;-2.05;100.00;103088.41;5069736;28;20044;-81
2023/02/07 22:51:37;;;;;;;89.00;73.50;;;;;;;-2.13;100.00;103090.50;5072517;28;20083;-81
2023/02/07 22:54:06;;;;;;;80.57;68.57;;;;;;;-2.37;100.00;103088.00;5065698;28;20474;-81
2023/02/07 22:56:34;;;;;;;90.43;72.65;;;;;;;-2.19;100.00;103088.16;5069687;28;20056;-81
2023/02/07 22:59:01;;;;;;;89.05;71.03;;;;;;;-2.35;100.00;103088.78;5068885;28;20044;-81
2023/02/07 23:01:31;;;;;;;86.85;71.28;;;;;;;-2.39;100.00;103095.03;5072203;28;20493;-82
2023/02/07 23:04:02;;;;;;;83.03;69.43;;;;;;;-2.54;100.00;103101.72;5065764;28;20083;-80
2023/02/07 23:06:31;;;;;;;92.93;71.88;;;;;;;-2.20;100.00;103092.50;5052650;28;20049;-81
2023/02/07 23:08:58;;;;;;;98.57;76.18;;;;;;;-2.31;100.00;103108.56;5059555;28;20084;-81
2023/02/07 23:11:25;;;;;;;93.10;71.95;;;;;;;-2.29;100.00;103105.91;5058155;28;20501;-81
2023/02/07 23:13:53;;;;;;;88.40;68.30;;;;;;;-2.20;100.00;103104.69;5046661;28;20503;-81
2023/02/07 23:16:22;;;;;;;89.60;70.60;;;;;;;-2.16;100.00;103107.09;5034709;28;20045;-80
2023/02/07 23:18:52;;;;;;;90.00;70.22;;;;;;;-2.29;100.00;103107.69;5037037;28;20045;-81
2023/02/07 23:21:21;;;;;;;90.28;70.57;;;;;;;-2.23;100.00;103110.03;5036512;28;20103;-81
2023/02/07 23:23:48;;;;;;;88.15;73.32;;;;;;;-2.35;100.00;103117.44;5032383;28;20102;-80
2023/02/07 23:26:16;;;;;;;87.57;68.25;;;;;;;-2.31;100.00;103115.53;5033616;28;20499;-80
2023/02/07 23:28:43;;;;;;;90.80;70.07;;;;;;;-2.40;100.00;103121.13;5032447;28;20049;-81
2023/02/07 23:31:12;;;;;;;89.32;71.72;;;;;;;-2.40;100.00;103116.75;5036280;28;20046;-80
2023/02/07 23:33:39;;;;;;;95.22;70.03;;;;;;;-2.44;100.00;103114.34;5039712;28;20049;-81
2023/02/07 23:36:08;;;;;;;87.82;69.35;;;;;;;-2.63;100.00;103120.31;5039148;28;20102;-81
2023/02/07 23:38:35;;;;;;;91.18;71.95;;;;;;;-2.47;100.00;103120.53;5041691;28;20045;-80
2023/02/07 23:41:02;;;;;;;88.85;66.60;;;;;;;-2.73;100.00;103121.56;5037556;28;20045;-81
2023/02/07 23:43:29;;;;;;;91.20;70.15;;;;;;;-2.59;100.00;103124.47;5039955;28;20045;-81
2023/02/07 23:45:56;;;;;;;88.25;67.10;;;;;;;-2.64;100.00;103131.59;5025465;28;20042;-80
2023/02/07 23:48:22;;;;;;;85.05;65.07;;;;;;;-2.65;100.00;103122.13;5029429;28;20045;-80
2023/02/07 23:50:51;;;;;;;92.55;69.18;;;;;;;-2.68;100.00;103127.44;5030581;28;20045;-80
2023/02/07 23:53:19;;;;;;;97.15;69.53;;;;;;;-2.76;100.00;103125.13;5032009;28;20045;-80
2023/02/07 23:55:46;;;;;;;91.47;70.03;;;;;;;-2.63;100.00;103129.84;5033417;28;20115;-80
2023/02/07 23:58:13;;;;;;;94.97;71.72;;;;;;;-2.44;100.00;103128.22;5033860;28;20102;-81
